CheckWX is a tool to help pilots better visualize weather data.  It is not intended as a substitute for an official pre-flight weather briefing.

16:47:32 UTC

KSZL TAF
Whiteman AFB Airport
Knob Noster, Missouri, USA
TAF KSZL 200300Z 2003/2109 VRB06KT 0400 FG VV005 QNH2980INS BECMG 2014/2015 13009KT 9999 NSW SCT015 QNH2973INS BECMG 2019/2020 16010G15KT 9999 SCT050 BKN150 QNH2970INS BECMG 2102/2103 18009KT 9999 BKN020 BKN130 QNH2966INS TEMPO 2105/2106 6000 -SHRA TEMPO 2107/2108 23009KT 4800 -TSRA BKN010CB OVC015 TX19/2022Z TN06/2006Z

Oct-20@
03:00 UTC

Oct-20 @ 03:00 UTC

Oct-20@
14:00 UTC

Oct-20 @ 14:00 UTC

TAF KSZL 200300Z 2003/2109 VRB06KT 0400 FG VV005 QNH2980INS

Expired

Wind
  • Variable at 6 KTS
Conditions
Fog
Cloud Levels
  • Vertical visibility at 500' AGL

Oct-20@
14:00 UTC

Oct-20 @ 14:00 UTC

Oct-20@
19:00 UTC

Oct-20 @ 19:00 UTC

BECMG 2014/2015 13009KT 9999 NSW SCT015 QNH2973INS

Becoming

Becoming Conditions expected by Sun, Oct 20, 2019 @ 15:00 UTC

Wind
  • 130° at 9 KTS
Conditions
No significant weather
Cloud Levels
  • Scattered at 1,500' AGL

Oct-20@
19:00 UTC

Oct-20 @ 19:00 UTC

Oct-21@
02:00 UTC

Oct-21 @ 02:00 UTC

BECMG 2019/2020 16010G15KT 9999 SCT050 BKN150 QNH2970INS

Becoming

Becoming Conditions expected by Sun, Oct 20, 2019 @ 20:00 UTC

Wind
  • 160° at 10 KTS
  • {Gusting to 15 KTS
Conditions
No significant weather
Cloud Levels
  • Scattered at 5,000' AGL
  • Broken at 15,000' AGL

Oct-21@
02:00 UTC

Oct-21 @ 02:00 UTC

Oct-21@
09:00 UTC

Oct-21 @ 09:00 UTC

BECMG 2102/2103 18009KT 9999 BKN020 BKN130 QNH2966INS

Becoming

Becoming Conditions expected by Mon, Oct 21, 2019 @ 03:00 UTC

Wind
  • 180° at 9 KTS
Conditions
No significant weather
Cloud Levels
  • Broken at 2,000' AGL
  • Broken at 13,000' AGL

Oct-21@
05:00 UTC

Oct-21 @ 05:00 UTC

Oct-21@
06:00 UTC

Oct-21 @ 06:00 UTC

TEMPO 2105/2106 6000 -SHRA

Temporary

Temporary Changes expected for less than half the time period

Conditions
Light Rain

Oct-21@
07:00 UTC

Oct-21 @ 07:00 UTC

Oct-21@
08:00 UTC

Oct-21 @ 08:00 UTC

TEMPO 2107/2108 23009KT 4800 -TSRA BKN010CB OVC015 TX19/2022Z TN06/2006Z

Temporary

Temporary Changes expected for less than half the time period

Wind
  • 230° at 9 KTS
Conditions
Light Thunderstorm, Light Rain
Cloud Levels
  • Broken at 1,000' AGL
  • Overcast at 1,500' AGL